createdAt,value
2018-04-30T00:00:23.770Z,59.68
2018-04-30T00:02:51.321Z,59.40
2018-04-30T00:05:18.862Z,58.83
2018-04-30T00:07:46.421Z,58.99
2018-04-30T00:10:13.943Z,58.95
2018-04-30T00:12:41.473Z,59.26
2018-04-30T00:15:09.041Z,59.47
2018-04-30T00:17:36.582Z,59.64
2018-04-30T00:20:04.132Z,59.29
2018-04-30T00:22:31.664Z,59.03
2018-04-30T00:24:59.198Z,58.71
2018-04-30T00:27:26.776Z,58.36
2018-04-30T00:29:54.312Z,58.05
2018-04-30T00:32:21.843Z,58.31
2018-04-30T00:34:49.380Z,58.30
2018-04-30T00:37:16.903Z,58.50
2018-04-30T00:39:44.431Z,58.74
2018-04-30T00:42:11.982Z,58.26
2018-04-30T00:44:39.500Z,58.46
2018-04-30T00:47:07.027Z,58.38
2018-04-30T00:49:34.559Z,58.38
2018-04-30T00:52:02.088Z,57.96
2018-04-30T00:54:41.369Z,58.10
2018-04-30T00:57:08.893Z,58.37
2018-04-30T00:59:36.462Z,58.48
2018-04-30T01:02:04.001Z,58.38
2018-04-30T01:04:31.540Z,58.95
2018-04-30T01:06:59.105Z,58.65
2018-04-30T01:09:26.639Z,58.35
2018-04-30T01:11:54.168Z,58.63
2018-04-30T01:14:21.692Z,58.94
2018-04-30T01:16:49.240Z,59.53
2018-04-30T01:19:16.769Z,59.76
2018-04-30T01:21:44.349Z,59.88
2018-04-30T01:24:11.853Z,60.15
2018-04-30T01:26:39.384Z,60.67
2018-04-30T01:29:06.907Z,60.54
2018-04-30T01:31:34.443Z,60.63
2018-04-30T01:34:01.968Z,60.77
2018-04-30T01:36:29.495Z,61.21
2018-04-30T01:38:57.035Z,61.46
2018-04-30T01:41:24.554Z,61.08
2018-04-30T01:43:52.083Z,60.74
2018-04-30T01:46:19.616Z,60.95
2018-04-30T01:48:47.149Z,61.44
2018-04-30T01:51:14.676Z,61.69
2018-04-30T01:53:42.223Z,61.76
2018-04-30T01:56:09.763Z,61.92
2018-04-30T01:58:37.312Z,61.67
2018-04-30T02:01:04.850Z,62.03
2018-04-30T02:03:32.379Z,61.78
2018-04-30T02:05:59.898Z,61.94
2018-04-30T02:08:27.423Z,62.10
2018-04-30T02:10:54.951Z,62.40
2018-04-30T02:13:22.484Z,62.11
2018-04-30T02:15:50.017Z,61.83
2018-04-30T02:18:17.546Z,61.95
2018-04-30T02:20:45.078Z,61.75
2018-04-30T02:23:12.610Z,61.65
2018-04-30T02:25:40.151Z,62.08
2018-04-30T02:28:07.723Z,61.87
2018-04-30T02:30:35.307Z,62.00
2018-04-30T02:33:02.843Z,62.29
2018-04-30T02:35:30.367Z,62.33
2018-04-30T02:37:57.908Z,62.89
2018-04-30T02:40:25.488Z,62.78
2018-04-30T02:42:53.011Z,62.47
2018-04-30T02:45:20.580Z,62.14
2018-04-30T02:47:48.158Z,62.69
2018-04-30T02:50:15.722Z,62.73
2018-04-30T02:52:43.248Z,62.73
2018-04-30T02:55:10.824Z,62.62
2018-04-30T02:57:38.350Z,62.34
2018-04-30T03:00:06.820Z,62.30
2018-04-30T03:02:34.379Z,61.82
2018-04-30T03:05:01.912Z,61.82
2018-04-30T03:07:29.457Z,61.95
2018-04-30T03:09:56.995Z,61.97
2018-04-30T03:12:24.656Z,61.78
2018-04-30T03:14:52.182Z,61.72
2018-04-30T03:17:19.721Z,61.62
2018-04-30T03:19:47.253Z,61.17
2018-04-30T03:22:14.825Z,61.00
2018-04-30T03:24:42.356Z,61.03
2018-04-30T03:27:09.914Z,61.49
2018-04-30T03:29:37.446Z,61.40
2018-04-30T03:32:05.002Z,61.80
2018-04-30T03:34:32.595Z,61.57
2018-04-30T03:37:00.133Z,61.38
2018-04-30T03:39:27.656Z,61.12
2018-04-30T03:41:55.187Z,61.15
2018-04-30T03:44:22.755Z,60.90
2018-04-30T03:46:50.295Z,60.71
2018-04-30T03:49:17.824Z,60.31
2018-04-30T03:51:45.349Z,60.21
2018-04-30T03:54:12.908Z,60.14
2018-04-30T03:56:40.435Z,59.72
2018-04-30T03:59:07.978Z,59.71
2018-04-30T04:04:51.185Z,60.31
2018-04-30T04:07:18.715Z,59.25
2018-04-30T04:09:46.241Z,58.94
2018-04-30T04:12:13.766Z,59.06
2018-04-30T04:14:41.307Z,58.70
2018-04-30T04:17:08.907Z,58.81
2018-04-30T04:19:36.379Z,58.06
2018-04-30T04:22:03.976Z,57.72
2018-04-30T04:24:31.504Z,57.38
2018-04-30T04:26:59.040Z,55.90
2018-04-30T04:29:26.581Z,55.48
2018-04-30T04:31:54.147Z,53.53
2018-04-30T04:34:21.680Z,52.80
2018-04-30T04:36:49.260Z,52.41
2018-04-30T04:39:16.837Z,52.53
2018-04-30T04:41:44.396Z,52.17
2018-04-30T04:44:11.963Z,51.84
2018-04-30T04:46:39.512Z,51.68
2018-04-30T04:49:07.032Z,50.41
2018-04-30T04:51:34.568Z,49.61
2018-04-30T04:54:02.132Z,51.89
2018-04-30T04:56:29.658Z,51.65
2018-04-30T04:58:57.192Z,50.01
2018-04-30T05:01:24.764Z,49.77
2018-04-30T05:03:52.347Z,48.19
2018-04-30T05:06:19.960Z,47.02
2018-04-30T05:08:47.495Z,46.93
2018-04-30T05:11:15.081Z,47.51
2018-04-30T05:13:42.615Z,45.50
2018-04-30T05:16:10.157Z,43.25
2018-04-30T05:18:37.742Z,41.70
2018-04-30T05:21:05.263Z,39.04
2018-04-30T05:23:33.068Z,39.99
2018-04-30T05:26:00.600Z,41.29
2018-04-30T05:28:28.140Z,38.59
2018-04-30T05:30:55.739Z,38.11
2018-04-30T05:33:23.292Z,36.37
2018-04-30T05:35:50.916Z,36.26
2018-04-30T05:38:18.444Z,39.92
2018-04-30T05:40:45.981Z,40.87
2018-04-30T05:43:13.585Z,37.19
2018-04-30T05:45:41.159Z,36.34
2018-04-30T05:48:09.386Z,36.67
2018-04-30T05:50:36.904Z,35.39
2018-04-30T05:53:04.495Z,33.73
2018-04-30T05:55:32.030Z,32.30
2018-04-30T05:57:59.560Z,32.03
2018-04-30T06:00:27.150Z,34.06
2018-04-30T06:02:54.731Z,35.18
2018-04-30T06:05:22.270Z,34.35
2018-04-30T06:07:49.836Z,35.53
2018-04-30T06:10:17.401Z,34.71
2018-04-30T06:12:45.090Z,34.34
2018-04-30T06:15:12.706Z,32.61
2018-04-30T06:17:40.230Z,33.92
2018-04-30T06:20:07.815Z,34.03
2018-04-30T06:22:35.385Z,34.07
2018-04-30T06:25:02.949Z,34.25
2018-04-30T06:27:30.496Z,34.54
2018-04-30T06:29:58.064Z,36.46
2018-04-30T06:32:25.628Z,36.38
2018-04-30T06:34:53.165Z,38.22
2018-04-30T06:37:20.747Z,38.74
2018-04-30T06:39:48.314Z,38.38
2018-04-30T06:42:15.930Z,39.01
2018-04-30T06:44:43.456Z,37.70
2018-04-30T06:47:10.985Z,34.50
2018-04-30T06:49:38.520Z,38.12
2018-04-30T06:52:06.053Z,37.59
2018-04-30T06:54:33.597Z,37.63
2018-04-30T06:57:01.140Z,39.71
2018-04-30T06:59:28.683Z,42.49
2018-04-30T07:01:56.296Z,42.35
2018-04-30T07:04:23.819Z,42.65
2018-04-30T07:06:51.359Z,41.04
2018-04-30T07:09:18.988Z,40.84
2018-04-30T07:11:46.468Z,41.75
2018-04-30T07:14:14.093Z,41.58
2018-04-30T07:16:41.626Z,42.38
2018-04-30T07:19:09.176Z,42.19
2018-04-30T07:21:36.710Z,41.59
2018-04-30T07:24:04.239Z,41.44
2018-04-30T07:26:31.816Z,41.46
2018-04-30T07:28:59.352Z,41.39
2018-04-30T07:31:27.019Z,39.18
2018-04-30T07:33:54.580Z,36.56
2018-04-30T07:36:22.111Z,34.90
2018-04-30T07:38:49.668Z,34.31
2018-04-30T07:41:17.227Z,34.29
2018-04-30T07:43:44.771Z,34.15
2018-04-30T07:46:12.318Z,32.72
2018-04-30T07:48:39.852Z,30.87
2018-04-30T07:51:07.380Z,31.44
2018-04-30T07:53:34.911Z,33.46
2018-04-30T07:56:02.447Z,30.27
2018-04-30T07:58:29.980Z,27.97
2018-04-30T08:00:57.503Z,27.10
2018-04-30T08:03:25.043Z,27.92
2018-04-30T08:05:52.590Z,26.99
2018-04-30T08:08:20.155Z,30.17
2018-04-30T08:10:47.683Z,29.59
2018-04-30T08:13:15.216Z,31.76
2018-04-30T08:15:42.739Z,33.25
2018-04-30T08:18:10.267Z,33.90
2018-04-30T08:20:37.791Z,34.66
2018-04-30T08:23:05.324Z,35.59
2018-04-30T08:25:32.867Z,34.51
2018-04-30T08:28:00.462Z,33.40
2018-04-30T08:30:27.990Z,33.38
2018-04-30T08:32:55.518Z,31.44
2018-04-30T08:35:23.056Z,30.74
2018-04-30T08:37:50.588Z,31.53
2018-04-30T08:40:18.171Z,31.91
2018-04-30T08:42:45.711Z,31.73
2018-04-30T08:45:13.243Z,31.88
2018-04-30T08:47:40.781Z,30.33
2018-04-30T08:50:08.336Z,30.28
2018-04-30T08:52:35.910Z,29.76
2018-04-30T08:55:03.492Z,29.47
2018-04-30T08:57:31.027Z,28.08
2018-04-30T08:59:58.577Z,27.86
2018-04-30T09:02:26.136Z,27.85
2018-04-30T09:04:53.704Z,28.67
2018-04-30T09:07:21.239Z,27.82
2018-04-30T09:09:48.863Z,28.87
2018-04-30T09:12:16.397Z,27.93
2018-04-30T09:14:43.980Z,27.91
2018-04-30T09:17:11.550Z,27.91
2018-04-30T09:19:39.127Z,28.70
2018-04-30T09:22:06.735Z,27.97
2018-04-30T09:24:34.349Z,28.28
2018-04-30T09:27:01.919Z,25.12
2018-04-30T09:29:29.519Z,26.36
2018-04-30T09:31:57.059Z,26.96
2018-04-30T09:34:24.593Z,27.21
2018-04-30T09:36:52.168Z,27.44
2018-04-30T09:39:19.700Z,25.51
2018-04-30T09:41:47.273Z,25.34
2018-04-30T09:44:14.802Z,23.80
2018-04-30T09:46:42.370Z,24.91
2018-04-30T09:49:09.909Z,24.51
2018-04-30T09:51:38.128Z,24.22
2018-04-30T09:54:05.667Z,26.71
2018-04-30T09:56:33.237Z,27.29
2018-04-30T09:59:00.812Z,28.69
2018-04-30T10:01:28.383Z,27.71
2018-04-30T10:03:55.915Z,29.39
2018-04-30T10:06:23.440Z,28.46
2018-04-30T10:08:50.971Z,28.28
2018-04-30T10:11:18.543Z,27.87
2018-04-30T10:13:46.083Z,28.38
2018-04-30T10:16:13.661Z,27.52
2018-04-30T10:18:41.199Z,27.27
2018-04-30T10:21:08.789Z,26.84
2018-04-30T10:23:36.422Z,26.42
2018-04-30T10:26:03.920Z,25.86
2018-04-30T10:28:31.526Z,25.04
2018-04-30T10:30:59.141Z,23.39
2018-04-30T10:33:26.778Z,22.50
2018-04-30T10:35:54.432Z,22.42
2018-04-30T10:38:22.089Z,24.67
2018-04-30T10:40:50.796Z,25.34
2018-04-30T10:43:18.754Z,26.56
2018-04-30T10:45:46.348Z,27.76
2018-04-30T10:48:13.870Z,28.44
2018-04-30T10:50:41.409Z,28.27
2018-04-30T10:53:09.004Z,29.52
2018-04-30T10:55:36.531Z,29.94
2018-04-30T10:58:04.124Z,30.13
2018-04-30T11:00:31.712Z,30.26
2018-04-30T11:02:59.241Z,30.58
2018-04-30T11:05:26.853Z,30.77
2018-04-30T11:07:54.407Z,30.63
2018-04-30T11:10:22.858Z,30.17
2018-04-30T11:12:50.405Z,30.62
2018-04-30T11:15:17.991Z,30.90
2018-04-30T11:17:45.538Z,29.79
2018-04-30T11:20:13.081Z,30.01
2018-04-30T11:22:40.777Z,29.44
2018-04-30T11:25:08.264Z,29.84
2018-04-30T11:27:35.833Z,28.36
2018-04-30T11:35:16.298Z,28.47
2018-04-30T11:37:43.823Z,28.76
2018-04-30T11:40:11.354Z,28.67
2018-04-30T11:42:38.887Z,28.04
2018-04-30T11:45:06.474Z,28.19
2018-04-30T11:47:34.022Z,26.94
2018-04-30T11:50:01.548Z,27.81
2018-04-30T11:52:29.072Z,28.39
2018-04-30T11:54:56.583Z,28.45
2018-04-30T11:57:24.203Z,28.91
2018-04-30T11:59:52.386Z,28.41
2018-04-30T12:02:19.968Z,28.79
2018-04-30T12:04:47.668Z,28.63
2018-04-30T12:07:15.191Z,28.27
2018-04-30T12:09:42.731Z,28.21
2018-04-30T12:12:10.246Z,29.39
2018-04-30T12:14:37.761Z,28.85
2018-04-30T12:17:05.294Z,28.35
2018-04-30T12:19:32.847Z,28.15
2018-04-30T12:22:00.435Z,28.78
2018-04-30T12:24:27.941Z,28.63
2018-04-30T12:26:55.979Z,27.65
2018-04-30T12:29:23.515Z,27.75
2018-04-30T12:31:51.055Z,27.82
2018-04-30T12:34:18.619Z,27.83
2018-04-30T12:36:46.174Z,27.59
2018-04-30T12:39:13.690Z,27.46
2018-04-30T12:41:41.259Z,27.35
2018-04-30T12:44:08.791Z,27.42
2018-04-30T12:46:36.314Z,27.78
2018-04-30T12:49:03.848Z,27.07
2018-04-30T12:51:31.385Z,28.08
2018-04-30T12:53:58.952Z,27.49
2018-04-30T12:56:26.474Z,27.76
2018-04-30T12:58:53.988Z,27.57
2018-04-30T13:01:21.519Z,27.62
2018-04-30T13:03:49.063Z,28.10
2018-04-30T13:06:16.578Z,28.23
2018-04-30T13:08:44.208Z,28.21
2018-04-30T13:11:11.730Z,30.28
2018-04-30T13:13:39.261Z,30.27
2018-04-30T13:16:06.784Z,29.03
2018-04-30T13:18:34.314Z,28.95
2018-04-30T13:21:01.824Z,29.62
2018-04-30T13:23:29.350Z,31.20
2018-04-30T13:25:56.864Z,30.93
2018-04-30T13:28:24.366Z,31.18
2018-04-30T13:30:51.883Z,30.52
2018-04-30T13:33:19.393Z,29.95
2018-04-30T13:35:46.917Z,30.21
2018-04-30T13:38:14.420Z,30.79
2018-04-30T13:40:41.929Z,30.54
2018-04-30T13:43:09.436Z,30.72
2018-04-30T13:45:36.991Z,30.87
2018-04-30T13:48:04.501Z,30.65
2018-04-30T13:50:32.006Z,30.04
2018-04-30T13:52:59.523Z,31.00
2018-04-30T13:55:27.042Z,30.35
2018-04-30T13:57:54.615Z,30.67
2018-04-30T14:00:22.128Z,30.58
2018-04-30T14:02:49.644Z,31.02
2018-04-30T14:05:17.153Z,30.99
2018-04-30T14:07:44.686Z,31.80
2018-04-30T14:10:12.246Z,32.58
2018-04-30T14:12:39.757Z,31.96
2018-04-30T14:15:07.303Z,31.92
2018-04-30T14:17:34.807Z,31.50
2018-04-30T14:20:02.303Z,31.02
2018-04-30T14:22:30.628Z,31.42
2018-04-30T14:24:58.172Z,31.70
2018-04-30T14:27:25.682Z,31.70
2018-04-30T14:29:53.214Z,32.07
2018-04-30T14:32:20.718Z,32.43
2018-04-30T14:34:48.226Z,32.20
2018-04-30T14:37:15.743Z,32.23
2018-04-30T14:39:43.284Z,32.79
2018-04-30T14:42:10.828Z,32.94
2018-04-30T14:44:38.448Z,33.38
2018-04-30T14:47:05.942Z,33.33
2018-04-30T14:49:33.455Z,33.28
2018-04-30T14:52:01.010Z,33.36
2018-04-30T14:54:28.553Z,33.60
2018-04-30T14:56:56.104Z,33.71
2018-04-30T14:59:23.685Z,33.80
2018-04-30T15:01:51.254Z,34.04
2018-04-30T15:04:18.784Z,34.07
2018-04-30T15:06:47.174Z,34.45
2018-04-30T15:09:14.727Z,34.07
2018-04-30T15:11:42.227Z,34.29
2018-04-30T15:14:09.782Z,34.26
2018-04-30T15:16:37.330Z,34.56
2018-04-30T15:19:04.897Z,34.58
2018-04-30T15:21:32.448Z,34.58
2018-04-30T15:23:59.968Z,34.10
2018-04-30T15:26:27.490Z,34.34
2018-04-30T15:28:55.011Z,33.97
2018-04-30T15:31:22.526Z,34.04
2018-04-30T15:33:50.024Z,35.14
2018-04-30T15:36:17.595Z,35.31
2018-04-30T15:38:45.098Z,35.36
2018-04-30T15:41:12.595Z,35.52
2018-04-30T15:43:40.104Z,35.14
2018-04-30T15:46:07.606Z,35.10
2018-04-30T15:48:35.124Z,35.03
2018-04-30T15:51:02.631Z,34.63
2018-04-30T15:53:30.180Z,34.80
2018-04-30T15:55:57.684Z,35.42
2018-04-30T15:58:25.197Z,35.85
2018-04-30T16:00:52.743Z,35.98
2018-04-30T16:03:20.282Z,36.72
2018-04-30T16:05:47.796Z,37.27
2018-04-30T16:08:15.312Z,36.62
2018-04-30T16:10:42.868Z,36.46
2018-04-30T16:13:10.380Z,36.26
2018-04-30T16:15:37.925Z,36.41
2018-04-30T16:18:05.434Z,36.76
2018-04-30T16:20:32.952Z,36.59
2018-04-30T16:23:00.454Z,36.79
2018-04-30T16:25:27.959Z,37.04
2018-04-30T16:27:55.488Z,36.99
2018-04-30T16:30:23.063Z,37.62
2018-04-30T16:32:50.567Z,37.53
2018-04-30T16:35:18.081Z,37.31
2018-04-30T16:37:45.591Z,37.94
2018-04-30T16:40:13.130Z,38.27
2018-04-30T16:42:40.630Z,39.10
2018-04-30T16:45:08.145Z,38.57
2018-04-30T16:47:35.673Z,39.41
2018-04-30T16:50:03.180Z,40.28
2018-04-30T16:52:30.687Z,40.23
2018-04-30T16:54:58.196Z,40.63
2018-04-30T16:57:26.256Z,41.12
2018-04-30T16:59:55.151Z,41.30
2018-04-30T17:02:22.671Z,41.25
2018-04-30T17:04:50.179Z,42.05
2018-04-30T17:07:17.692Z,42.50
2018-04-30T17:09:45.234Z,43.25
2018-04-30T17:12:12.811Z,43.34
2018-04-30T17:14:40.318Z,43.83
2018-04-30T17:17:07.837Z,44.56
2018-04-30T17:19:35.343Z,45.28
2018-04-30T17:22:02.887Z,45.70
2018-04-30T17:24:30.397Z,45.37
2018-04-30T17:26:59.019Z,46.30
2018-04-30T17:29:26.554Z,46.56
2018-04-30T17:31:54.070Z,46.92
2018-04-30T17:34:21.571Z,47.07
2018-04-30T17:36:49.131Z,47.97
2018-04-30T17:39:16.640Z,48.26
2018-04-30T17:41:44.192Z,48.50
2018-04-30T17:44:11.689Z,48.59
2018-04-30T17:46:39.228Z,48.48
2018-04-30T17:49:06.747Z,48.71
2018-04-30T17:51:34.266Z,49.10
2018-04-30T17:54:02.575Z,49.11
2018-04-30T17:56:30.074Z,48.82
2018-04-30T17:58:57.566Z,48.76
2018-04-30T18:01:25.073Z,49.11
2018-04-30T18:03:52.570Z,49.31
2018-04-30T18:06:20.150Z,49.47
2018-04-30T18:08:47.817Z,49.43
2018-04-30T18:11:15.327Z,49.42
2018-04-30T18:13:42.819Z,49.66
2018-04-30T18:16:10.377Z,49.69
2018-04-30T18:18:38.819Z,49.73
2018-04-30T18:21:06.358Z,49.96
2018-04-30T18:23:33.869Z,50.20
2018-04-30T18:26:01.432Z,49.93
2018-04-30T18:28:28.926Z,49.92
2018-04-30T18:30:56.476Z,49.96
2018-04-30T18:33:24.056Z,50.04
2018-04-30T18:35:51.532Z,50.37
2018-04-30T18:38:19.051Z,50.63
2018-04-30T18:40:46.563Z,50.75
2018-04-30T18:43:14.084Z,51.25
2018-04-30T18:45:41.598Z,51.84
2018-04-30T18:48:09.106Z,51.38
2018-04-30T18:50:36.602Z,51.11
2018-04-30T18:53:04.147Z,51.00
2018-04-30T18:55:31.670Z,50.73
2018-04-30T18:57:59.183Z,50.60
2018-04-30T19:00:26.694Z,50.81
2018-04-30T19:02:54.195Z,51.18
2018-04-30T19:05:21.703Z,51.12
2018-04-30T19:07:49.291Z,51.16
2018-04-30T19:10:16.881Z,51.39
2018-04-30T19:12:44.387Z,51.62
2018-04-30T19:17:53.556Z,51.60
2018-04-30T19:20:21.081Z,51.92
2018-04-30T19:22:48.579Z,51.84
2018-04-30T19:25:16.189Z,51.67
2018-04-30T19:27:43.738Z,51.58
2018-04-30T19:30:11.275Z,51.91
2018-04-30T19:32:38.782Z,52.07
2018-04-30T19:35:06.299Z,52.15
2018-04-30T19:37:33.796Z,52.39
2018-04-30T19:40:01.316Z,52.93
2018-04-30T19:42:28.865Z,53.23
2018-04-30T19:44:56.363Z,53.10
2018-04-30T19:47:23.867Z,53.27
2018-04-30T19:49:51.377Z,53.51
2018-04-30T19:52:18.892Z,53.50
2018-04-30T19:54:46.392Z,53.64
2018-04-30T19:57:13.892Z,53.78
2018-04-30T19:59:41.396Z,54.47
2018-04-30T20:02:08.921Z,54.35
2018-04-30T20:04:36.435Z,54.47
2018-04-30T20:07:03.948Z,54.80
2018-04-30T20:09:31.451Z,54.65
2018-04-30T20:11:58.950Z,54.78
2018-04-30T20:14:26.452Z,54.92
2018-04-30T20:16:54.009Z,55.40
2018-04-30T20:19:21.518Z,55.30
2018-04-30T20:21:49.076Z,55.27
2018-04-30T20:26:49.564Z,54.82
2018-04-30T20:29:17.072Z,55.17
2018-04-30T20:31:44.627Z,55.01
2018-04-30T20:34:12.350Z,55.40
2018-04-30T20:36:39.891Z,55.35
2018-04-30T20:39:07.403Z,55.02
2018-04-30T20:41:34.913Z,55.30
2018-04-30T20:44:02.425Z,55.17
2018-04-30T20:46:29.964Z,55.38
2018-04-30T20:48:57.462Z,55.39
2018-04-30T20:51:24.960Z,55.00
2018-04-30T20:53:52.488Z,54.86
2018-04-30T20:56:20.029Z,54.67
2018-04-30T20:58:47.527Z,54.84
2018-04-30T21:01:15.034Z,54.61
2018-04-30T21:03:43.383Z,54.80
2018-04-30T21:06:10.885Z,54.89
2018-04-30T21:08:50.208Z,55.09
2018-04-30T21:11:17.716Z,55.16
2018-04-30T21:13:45.254Z,55.31
2018-04-30T21:16:12.800Z,55.40
2018-04-30T21:18:40.338Z,55.49
2018-04-30T21:21:07.874Z,55.69
2018-04-30T21:23:35.423Z,56.18
2018-04-30T21:26:02.935Z,56.42
2018-04-30T21:28:30.471Z,57.18
2018-04-30T21:30:58.023Z,56.71
2018-04-30T21:33:25.555Z,56.85
2018-04-30T21:35:53.686Z,56.90
2018-04-30T21:38:21.188Z,57.11
2018-04-30T21:40:48.771Z,57.49
2018-04-30T21:43:16.264Z,57.74
2018-04-30T21:45:43.770Z,57.59
2018-04-30T21:48:11.279Z,57.63
2018-04-30T21:50:38.775Z,57.85
2018-04-30T21:53:06.263Z,58.27
2018-04-30T21:55:33.755Z,58.36
2018-04-30T21:58:01.264Z,58.58
2018-04-30T22:00:28.823Z,58.25
2018-04-30T22:02:56.385Z,58.75
2018-04-30T22:05:23.903Z,58.64
2018-04-30T22:07:51.447Z,58.19
2018-04-30T22:10:18.944Z,58.58
2018-04-30T22:12:46.444Z,58.39
2018-04-30T22:15:13.947Z,58.59
2018-04-30T22:17:41.490Z,58.63
2018-04-30T22:20:09.030Z,58.47
2018-04-30T22:22:36.548Z,58.86
2018-04-30T22:25:04.048Z,59.11
2018-04-30T22:27:31.555Z,59.05
2018-04-30T22:29:59.065Z,59.48
2018-04-30T22:32:26.578Z,59.46
2018-04-30T22:34:54.084Z,59.19
2018-04-30T22:37:21.592Z,59.08
2018-04-30T22:39:49.470Z,59.44
2018-04-30T22:42:16.987Z,59.50
2018-04-30T22:44:44.496Z,59.68
2018-04-30T22:47:12.005Z,60.02
2018-04-30T22:49:39.527Z,60.18
2018-04-30T22:52:07.046Z,59.97
2018-04-30T22:54:34.592Z,60.41
2018-04-30T22:57:02.091Z,60.32
2018-04-30T22:59:29.599Z,60.31
2018-04-30T23:01:57.109Z,60.41
2018-04-30T23:04:24.606Z,60.53
2018-04-30T23:06:52.112Z,60.16
2018-04-30T23:09:19.611Z,60.36
2018-04-30T23:11:47.121Z,60.42
2018-04-30T23:14:14.636Z,60.90
2018-04-30T23:16:42.138Z,60.56
2018-04-30T23:19:09.644Z,60.77
2018-04-30T23:21:37.196Z,61.12
2018-04-30T23:24:04.711Z,61.12
2018-04-30T23:26:32.240Z,61.03
2018-04-30T23:28:59.743Z,61.42
2018-04-30T23:31:27.251Z,61.67
2018-04-30T23:33:54.762Z,61.79
2018-04-30T23:36:22.259Z,61.79
2018-04-30T23:38:49.759Z,61.85
2018-04-30T23:41:17.317Z,62.09
2018-04-30T23:43:44.822Z,62.12
2018-04-30T23:46:12.354Z,62.18
2018-04-30T23:48:39.866Z,62.43
2018-04-30T23:51:07.414Z,62.19
2018-04-30T23:53:34.949Z,61.87
2018-04-30T23:56:02.463Z,62.10
2018-04-30T23:58:29.967Z,61.85
